Time;durP1;ratioP1;P1;durP2;ratioP2;P2;SDS_P1;SDS_P2;PMS_P1;PMS_P2;Temp;Humidity;BMP_temperature;BMP_pressure;BME280_temperature;BME280_humidity;BME280_pressure;Samples;Min_cycle;Max_cycle;Signal;HPM_P1;HPM_P2
2023/03/27 00:00:44;;;;;;;4.05;1.10;;;5.30;66.50;;;;;;4953884;28;20078;-83
2023/03/27 00:03:11;;;;;;;4.45;1.25;;;5.20;66.40;;;;;;4953376;28;20049;-83
2023/03/27 00:05:38;;;;;;;4.95;1.40;;;5.20;66.50;;;;;;4969606;28;20042;-83
2023/03/27 00:08:05;;;;;;;4.65;1.08;;;5.20;66.60;;;;;;4953561;28;20450;-83
2023/03/27 00:10:31;;;;;;;3.95;1.27;;;5.20;66.70;;;;;;4937521;28;20116;-83
2023/03/27 00:12:57;;;;;;;4.85;1.00;;;5.20;66.90;;;;;;4937399;28;20043;-83
2023/03/27 00:15:24;;;;;;;3.83;1.20;;;5.20;67.10;;;;;;4968247;28;20034;-83
2023/03/27 00:17:51;;;;;;;6.70;1.33;;;5.10;67.10;;;;;;4958441;28;20081;-83
2023/03/27 00:20:23;;;;;;;3.83;1.20;;;5.20;67.30;;;;;;4953248;28;20050;-83
2023/03/27 00:22:55;;;;;;;4.45;1.13;;;5.10;67.30;;;;;;5048911;28;20080;-83
2023/03/27 00:25:26;;;;;;;4.93;1.10;;;5.10;67.30;;;;;;5038563;28;20037;-83
2023/03/27 00:27:55;;;;;;;7.03;1.45;;;5.10;67.30;;;;;;5053777;28;20044;-83
2023/03/27 00:30:21;;;;;;;3.03;0.93;;;5.20;67.30;;;;;;5054044;28;20062;-83
2023/03/27 00:32:46;;;;;;;2.97;0.90;;;5.10;67.20;;;;;;5054050;28;20085;-83
2023/03/27 00:35:13;;;;;;;3.95;1.25;;;5.60;67.50;;;;;;5070705;28;20094;-83
2023/03/27 00:37:39;;;;;;;6.18;1.38;;;5.10;67.30;;;;;;5015847;28;20490;-83
2023/03/27 00:40:06;;;;;;;4.72;1.80;;;5.10;67.40;;;;;;4968949;28;20082;-83
2023/03/27 00:42:33;;;;;;;4.05;1.27;;;5.10;67.40;;;;;;4952880;28;20078;-83
2023/03/27 00:45:00;;;;;;;2.92;1.00;;;5.10;67.60;;;;;;5036840;28;20505;-83
2023/03/27 00:47:35;;;;;;;5.43;1.10;;;5.10;67.80;;;;;;4970433;28;20108;-83
2023/03/27 00:50:10;;;;;;;4.55;0.73;;;5.10;68.00;;;;;;4968781;28;20046;-83
2023/03/27 00:52:39;;;;;;;4.13;0.90;;;5.00;68.00;;;;;;4968335;28;20062;-83
2023/03/27 00:55:11;;;;;;;6.35;1.15;;;5.00;68.10;;;;;;4952481;28;20081;-83
2023/03/27 00:57:36;;;;;;;7.43;1.50;;;5.00;68.00;;;;;;4955157;28;20039;-83
2023/03/27 01:00:11;;;;;;;6.10;2.05;;;5.00;68.00;;;;;;5038261;28;20125;-83
2023/03/27 01:02:41;;;;;;;3.05;0.80;;;5.00;68.10;;;;;;4938882;28;20039;-83
2023/03/27 01:05:08;;;;;;;3.15;1.05;;;5.00;68.10;;;;;;4955895;28;20411;-83
2023/03/27 01:07:35;;;;;;;5.68;1.17;;;5.00;68.20;;;;;;4956759;28;20043;-83
2023/03/27 01:10:04;;;;;;;3.65;1.65;;;5.00;68.30;;;;;;4972017;28;20387;-83
2023/03/27 01:12:55;;;;;;;4.55;0.70;;;5.00;68.30;;;;;;4955907;28;20046;-83
2023/03/27 01:15:21;;;;;;;3.42;0.82;;;5.00;68.40;;;;;;4971822;28;20053;-83
2023/03/27 01:18:01;;;;;;;6.75;1.20;;;5.00;68.30;;;;;;4955482;28;20042;-83
2023/03/27 01:20:49;;;;;;;3.70;1.00;;;5.00;68.30;;;;;;4979796;28;20128;-83
2023/03/27 01:23:46;;;;;;;4.40;0.82;;;5.00;68.20;;;;;;4987346;28;20046;-83
2023/03/27 01:26:27;;;;;;;2.83;1.20;;;5.00;68.20;;;;;;4961100;28;20180;-83
2023/03/27 01:28:58;;;;;;;3.50;1.10;;;5.00;68.30;;;;;;4956246;28;20074;-83
2023/03/27 01:31:50;;;;;;;4.03;1.00;;;5.00;68.20;;;;;;4952293;28;20526;-83
2023/03/27 01:34:53;;;;;;;5.97;1.42;;;4.90;68.20;;;;;;5036647;28;20506;-83
2023/03/27 01:37:49;;;;;;;4.80;1.10;;;4.90;68.30;;;;;;4936668;28;20051;-83
2023/03/27 01:40:19;;;;;;;6.80;1.63;;;4.90;68.40;;;;;;4954599;28;20051;-83
2023/03/27 01:42:57;;;;;;;6.97;1.15;;;4.90;68.40;;;;;;4955612;28;20062;-83
2023/03/27 01:45:32;;;;;;;3.15;0.80;;;4.90;68.50;;;;;;5041318;28;20118;-83
2023/03/27 01:48:05;;;;;;;3.30;0.90;;;4.90;68.60;;;;;;5056604;28;20032;-83
2023/03/27 01:50:55;;;;;;;5.73;1.57;;;4.90;68.50;;;;;;5056655;28;20098;-83
2023/03/27 01:53:27;;;;;;;4.10;1.60;;;4.90;68.40;;;;;;5056488;28;20186;-83
2023/03/27 01:56:12;;;;;;;4.13;1.25;;;4.90;68.50;;;;;;4981731;28;20039;-83
2023/03/27 01:58:40;;;;;;;;;;;4.80;68.60;;;;;;4976789;28;20042;-83
2023/03/27 02:01:09;;;;;;;4.40;0.77;;;4.90;68.60;;;;;;4988370;28;19925;-82
2023/03/27 02:03:40;;;;;;;5.28;0.80;;;4.80;68.60;;;;;;4988654;28;20050;-83
2023/03/27 02:06:12;;;;;;;4.38;1.25;;;4.80;68.80;;;;;;4956146;28;20050;-83
2023/03/27 02:08:55;;;;;;;5.10;1.30;;;4.80;68.80;;;;;;5073686;28;20042;-82
2023/03/27 02:11:25;;;;;;;3.75;0.70;;;4.80;68.90;;;;;;4956101;28;20049;-83
2023/03/27 02:13:59;;;;;;;6.18;0.98;;;4.80;68.90;;;;;;4955994;28;20501;-83
2023/03/27 02:16:27;;;;;;;;;;;4.80;68.90;;;;;;4972331;28;20073;-83
2023/03/27 02:19:03;;;;;;;5.88;1.20;;;4.80;68.90;;;;;;5074232;28;19941;-83
2023/03/27 02:21:32;;;;;;;3.80;0.85;;;4.70;69.10;;;;;;4955872;28;20545;-83
2023/03/27 02:24:00;;;;;;;6.45;1.20;;;4.70;68.70;;;;;;5038381;28;20093;-83
2023/03/27 02:26:28;;;;;;;6.00;0.98;;;4.70;68.90;;;;;;4971814;28;20122;-83
2023/03/27 02:29:25;;;;;;;4.65;0.70;;;4.80;68.80;;;;;;4940007;28;20057;-83
2023/03/27 02:32:03;;;;;;;6.30;1.00;;;4.70;68.40;;;;;;4971931;28;20078;-84
2023/03/27 02:34:49;;;;;;;7.50;1.20;;;4.60;68.30;;;;;;4955617;28;20042;-84
2023/03/27 02:37:32;;;;;;;5.22;0.90;;;4.60;68.50;;;;;;4956605;28;20145;-84
2023/03/27 02:40:21;;;;;;;5.00;0.60;;;4.50;68.80;;;;;;4974989;28;20133;-83
2023/03/27 02:42:47;;;;;;;6.03;0.77;;;4.50;69.70;;;;;;4990496;28;20115;-83
2023/03/27 02:45:41;;;;;;;4.03;0.85;;;4.40;69.90;;;;;;4955762;28;20054;-84
2023/03/27 02:48:32;;;;;;;2.92;0.70;;;4.30;70.20;;;;;;4954716;28;20055;-83
2023/03/27 02:51:21;;;;;;;3.20;1.08;;;4.30;70.50;;;;;;4965211;28;20054;-83
2023/03/27 02:53:53;;;;;;;3.95;0.95;;;4.30;70.80;;;;;;5056585;28;20396;-83
2023/03/27 02:56:22;;;;;;;4.72;1.27;;;4.30;71.00;;;;;;5073073;28;20054;-83
2023/03/27 02:59:07;;;;;;;4.32;0.70;;;4.30;71.10;;;;;;5056379;28;20056;-83
2023/03/27 03:01:35;;;;;;;3.95;0.75;;;4.30;71.20;;;;;;5072826;28;20094;-83
2023/03/27 03:04:07;;;;;;;2.67;0.70;;;4.30;71.10;;;;;;5056345;28;20043;-83
2023/03/27 03:06:34;;;;;;;3.13;0.73;;;4.30;71.20;;;;;;5064694;28;20048;-83
2023/03/27 03:09:05;;;;;;;3.47;0.77;;;4.30;71.10;;;;;;5073005;28;20036;-83
2023/03/27 03:11:33;;;;;;;3.60;0.75;;;4.40;71.10;;;;;;5072961;28;20114;-83
2023/03/27 03:13:59;;;;;;;2.03;0.60;;;4.30;71.10;;;;;;5056160;28;20044;-83
2023/03/27 03:16:25;;;;;;;3.90;0.73;;;4.70;71.50;;;;;;4985596;28;20031;-83
2023/03/27 03:18:51;;;;;;;5.13;1.10;;;4.40;71.20;;;;;;4954997;28;20118;-83
2023/03/27 03:21:17;;;;;;;2.75;0.63;;;4.30;71.00;;;;;;4944055;28;20494;-83
2023/03/27 03:23:44;;;;;;;3.25;0.77;;;4.30;71.10;;;;;;4959276;28;20082;-84
2023/03/27 03:26:09;;;;;;;4.13;1.02;;;4.30;71.30;;;;;;4975770;28;20082;-83
2023/03/27 03:28:35;;;;;;;6.38;1.60;;;4.70;71.70;;;;;;4955721;28;20426;-84
2023/03/27 03:31:04;;;;;;;6.93;1.20;;;4.40;71.80;;;;;;4974822;28;20029;-84
2023/03/27 03:33:30;;;;;;;8.70;1.52;;;4.20;72.00;;;;;;4957203;28;20129;-84
2023/03/27 03:36:00;;;;;;;4.70;0.95;;;4.20;72.40;;;;;;4955556;28;20494;-83
2023/03/27 03:38:28;;;;;;;6.00;0.93;;;4.20;72.50;;;;;;4971791;28;20050;-83
2023/03/27 03:40:55;;;;;;;5.88;1.02;;;4.20;72.80;;;;;;4939545;28;20047;-83
2023/03/27 03:43:26;;;;;;;5.20;1.35;;;4.20;73.00;;;;;;4970932;28;20043;-83
2023/03/27 03:45:53;;;;;;;4.03;0.70;;;4.30;73.30;;;;;;4954761;28;20041;-83
2023/03/27 03:48:20;;;;;;;4.28;1.00;;;4.20;73.20;;;;;;4969164;28;20043;-83
2023/03/27 03:50:47;;;;;;;3.40;0.85;;;4.60;73.50;;;;;;4974260;28;20038;-83
2023/03/27 03:53:14;;;;;;;2.90;0.90;;;4.30;73.30;;;;;;4973639;28;20058;-83
2023/03/27 03:55:40;;;;;;;4.57;0.70;;;4.30;73.40;;;;;;4966419;28;20093;-83
2023/03/27 03:58:06;;;;;;;6.82;1.20;;;4.30;73.30;;;;;;4954486;28;20085;-83
2023/03/27 04:00:36;;;;;;;5.00;0.90;;;4.30;73.30;;;;;;4954732;28;20068;-83
2023/03/27 04:03:07;;;;;;;5.03;1.33;;;4.40;73.20;;;;;;4948353;28;20046;-83
2023/03/27 04:05:35;;;;;;;4.72;0.90;;;4.30;73.00;;;;;;4990253;28;20494;-83
2023/03/27 04:08:01;;;;;;;4.60;1.10;;;4.30;72.80;;;;;;4971150;28;20046;-83
2023/03/27 04:10:28;;;;;;;3.70;0.98;;;4.40;72.80;;;;;;4938649;28;20078;-83
2023/03/27 04:12:54;;;;;;;4.45;0.88;;;4.30;72.60;;;;;;4954614;28;20039;-83
2023/03/27 04:15:20;;;;;;;5.25;1.00;;;4.30;72.50;;;;;;4970495;28;20042;-83
2023/03/27 04:17:49;;;;;;;5.63;1.25;;;4.30;72.50;;;;;;4954695;28;20126;-83
2023/03/27 04:20:16;;;;;;;5.20;1.52;;;4.20;72.50;;;;;;4954706;28;20096;-83
2023/03/27 04:22:46;;;;;;;5.45;0.95;;;4.20;72.40;;;;;;4954518;28;20107;-83
2023/03/27 04:25:14;;;;;;;4.18;1.10;;;4.30;72.40;;;;;;4954708;28;20394;-83
2023/03/27 04:27:42;;;;;;;4.32;0.93;;;4.20;72.20;;;;;;4954264;28;20054;-83
2023/03/27 04:30:09;;;;;;;2.75;0.80;;;4.30;72.20;;;;;;4954088;28;20051;-83
2023/03/27 04:32:35;;;;;;;5.78;1.02;;;4.10;72.30;;;;;;4968876;28;20035;-83
2023/03/27 04:35:02;;;;;;;1.35;0.70;;;4.20;72.40;;;;;;4984121;28;20038;-83
2023/03/27 04:37:29;;;;;;;3.90;0.98;;;4.10;72.60;;;;;;4953937;28;20034;-83
2023/03/27 04:39:55;;;;;;;4.78;0.90;;;4.20;72.70;;;;;;4994118;28;20049;-84
2023/03/27 04:42:22;;;;;;;2.40;0.93;;;4.20;72.80;;;;;;4977478;28;20035;-83
2023/03/27 04:44:51;;;;;;;4.20;1.02;;;4.20;72.70;;;;;;4990732;28;20032;-83
2023/03/27 04:47:19;;;;;;;1.80;1.00;;;4.20;72.70;;;;;;5058699;28;20048;-83
2023/03/27 04:49:49;;;;;;;3.15;0.73;;;4.20;72.70;;;;;;5042139;28;20074;-83
2023/03/27 04:52:18;;;;;;;4.10;0.70;;;4.20;72.70;;;;;;5058777;28;20234;-84
2023/03/27 04:54:45;;;;;;;7.15;1.15;;;4.20;72.80;;;;;;4983418;28;20047;-85
2023/03/27 04:57:11;;;;;;;2.95;1.10;;;4.30;72.80;;;;;;4957443;28;20070;-85
2023/03/27 04:59:37;;;;;;;6.18;1.23;;;4.20;72.70;;;;;;4957188;28;20494;-84
2023/03/27 05:02:04;;;;;;;5.78;1.38;;;4.40;72.70;;;;;;4957115;28;20412;-84
2023/03/27 05:04:30;;;;;;;2.75;0.75;;;4.30;72.50;;;;;;5042019;28;20105;-85
2023/03/27 05:06:58;;;;;;;6.88;1.70;;;4.30;72.50;;;;;;5058296;28;20070;-84
2023/03/27 05:09:24;;;;;;;7.88;1.17;;;4.70;72.50;;;;;;4973255;28;20058;-85
2023/03/27 05:11:50;;;;;;;3.15;1.10;;;4.30;72.00;;;;;;4973014;28;20091;-85
2023/03/27 05:14:20;;;;;;;3.92;1.02;;;4.60;72.00;;;;;;5042060;28;20042;-85
2023/03/27 05:16:49;;;;;;;8.27;1.38;;;4.30;71.90;;;;;;4957275;28;20547;-86
2023/03/27 05:19:15;;;;;;;4.07;1.23;;;4.40;71.90;;;;;;4957170;28;20077;-86
2023/03/27 05:21:41;;;;;;;5.97;1.40;;;4.30;71.60;;;;;;4940972;28;20043;-85
2023/03/27 05:24:08;;;;;;;4.30;1.50;;;4.30;71.20;;;;;;4956941;28;20050;-85
2023/03/27 05:26:34;;;;;;;7.05;1.30;;;4.30;71.10;;;;;;4941152;28;20623;-86
2023/03/27 05:29:00;;;;;;;7.00;1.65;;;4.30;71.00;;;;;;4958487;28;20493;-85
2023/03/27 05:31:27;;;;;;;7.63;1.55;;;4.20;70.90;;;;;;4960132;28;20096;-85
2023/03/27 05:33:53;;;;;;;7.95;1.42;;;4.20;70.90;;;;;;4992330;28;20125;-86
2023/03/27 05:36:20;;;;;;;5.65;1.33;;;4.10;71.00;;;;;;4976272;28;20035;-86
2023/03/27 05:38:47;;;;;;;5.72;1.35;;;4.00;71.10;;;;;;4992098;28;20127;-85
2023/03/27 05:41:14;;;;;;;5.78;1.50;;;4.00;71.20;;;;;;4979103;28;20046;-85
2023/03/27 05:43:41;;;;;;;9.60;1.55;;;4.20;71.50;;;;;;4982805;28;20086;-85
2023/03/27 05:46:07;;;;;;;7.07;1.95;;;4.00;71.50;;;;;;4972513;28;20042;-85
2023/03/27 05:48:33;;;;;;;3.25;1.10;;;3.90;71.60;;;;;;5040748;28;20050;-85
2023/03/27 05:50:59;;;;;;;5.00;1.38;;;3.90;71.90;;;;;;5056550;28;20085;-84
2023/03/27 05:53:25;;;;;;;6.38;1.58;;;3.90;72.00;;;;;;5057384;28;20082;-85
2023/03/27 05:55:50;;;;;;;9.23;2.22;;;3.90;72.30;;;;;;5036360;28;20043;-84
2023/03/27 05:58:16;;;;;;;4.82;2.20;;;3.90;72.40;;;;;;5001592;28;20054;-84
2023/03/27 06:00:43;;;;;;;7.15;2.20;;;4.20;72.90;;;;;;5025487;28;20098;-85
2023/03/27 06:03:11;;;;;;;10.25;2.35;;;3.90;73.00;;;;;;5057667;28;20035;-85
2023/03/27 06:05:39;;;;;;;8.32;2.47;;;4.00;73.40;;;;;;4983004;28;20053;-84
2023/03/27 06:08:07;;;;;;;7.43;2.60;;;4.10;73.70;;;;;;4991614;28;20509;-84
2023/03/27 06:10:33;;;;;;;6.40;3.00;;;4.20;73.80;;;;;;4975888;28;20054;-84
2023/03/27 06:13:00;;;;;;;6.63;1.95;;;4.30;73.80;;;;;;5057564;28;20110;-85
2023/03/27 06:15:26;;;;;;;7.85;2.13;;;4.50;74.00;;;;;;5057133;28;20036;-85
2023/03/27 06:17:52;;;;;;;5.72;1.30;;;4.70;73.90;;;;;;5040704;28;20044;-84
2023/03/27 06:20:20;;;;;;;8.50;1.58;;;4.90;73.50;;;;;;5073635;28;20041;-84
2023/03/27 06:22:51;;;;;;;5.13;1.23;;;5.10;73.00;;;;;;5057097;28;20044;-89
2023/03/27 06:25:19;;;;;;;4.53;1.05;;;5.40;72.50;;;;;;5057154;28;20076;-87
2023/03/27 06:27:46;;;;;;;6.82;1.45;;;5.60;72.00;;;;;;5013543;28;20086;-87
2023/03/27 06:30:15;;;;;;;3.05;1.08;;;5.80;71.10;;;;;;4977328;28;20463;-87
2023/03/27 06:32:44;;;;;;;5.30;1.40;;;6.00;70.50;;;;;;5028854;28;20070;-87
2023/03/27 06:35:13;;;;;;;4.95;1.15;;;6.20;69.70;;;;;;4999052;28;20034;-87
2023/03/27 06:37:45;;;;;;;4.43;0.90;;;6.30;69.30;;;;;;4977267;28;20145;-87
2023/03/27 06:40:21;;;;;;;3.28;0.80;;;6.40;68.90;;;;;;5060704;28;20038;-84
2023/03/27 06:43:04;;;;;;;4.78;0.98;;;6.50;68.30;;;;;;4960359;28;20046;-86
2023/03/27 06:45:34;;;;;;;3.80;0.88;;;6.60;67.70;;;;;;4975143;28;20053;-85
2023/03/27 06:48:03;;;;;;;4.72;1.20;;;6.70;67.50;;;;;;4957131;28;20631;-86
2023/03/27 06:50:30;;;;;;;4.50;1.35;;;6.80;67.40;;;;;;5073207;28;20074;-87
2023/03/27 06:52:56;;;;;;;4.68;1.10;;;6.80;66.60;;;;;;4955388;28;20055;-83
2023/03/27 06:55:25;;;;;;;7.15;0.95;;;6.90;66.30;;;;;;5056119;28;20055;-88
2023/03/27 06:57:52;;;;;;;6.13;1.10;;;7.00;66.10;;;;;;4962371;28;20375;-89
2023/03/27 07:00:23;;;;;;;3.10;1.55;;;7.00;65.60;;;;;;4980184;28;20039;-87
2023/03/27 07:02:56;;;;;;;3.45;0.70;;;7.00;65.30;;;;;;4955368;28;20050;-88
2023/03/27 07:05:27;;;;;;;4.80;1.00;;;7.00;64.80;;;;;;4955721;28;20047;-87
2023/03/27 07:07:54;;;;;;;4.90;1.23;;;6.90;64.60;;;;;;4955852;28;20078;-81
2023/03/27 07:10:21;;;;;;;3.97;0.93;;;6.90;64.90;;;;;;4954815;28;20043;-87
2023/03/27 07:12:49;;;;;;;4.97;1.05;;;6.90;64.90;;;;;;4955563;28;20093;-87
2023/03/27 07:15:16;;;;;;;7.53;1.10;;;6.80;65.10;;;;;;4939693;28;20391;-87
2023/03/27 07:17:43;;;;;;;6.78;1.50;;;6.80;65.40;;;;;;4971569;28;20088;-86
2023/03/27 07:20:12;;;;;;;9.07;1.55;;;6.90;65.80;;;;;;4939516;28;20046;-87
2023/03/27 07:22:41;;;;;;;6.10;1.40;;;6.90;65.70;;;;;;4939296;28;20038;-87
2023/03/27 07:25:09;;;;;;;9.45;1.77;;;6.90;65.60;;;;;;4955398;28;20053;-88
2023/03/27 07:27:34;;;;;;;7.70;2.33;;;6.90;65.30;;;;;;4955203;28;20042;-87
2023/03/27 07:30:01;;;;;;;6.03;1.40;;;7.00;65.00;;;;;;4939148;28;20158;-88
2023/03/27 07:32:28;;;;;;;6.05;1.77;;;6.90;64.80;;;;;;4955454;28;20390;-87
2023/03/27 07:34:55;;;;;;;7.40;2.22;;;6.90;64.70;;;;;;4939322;28;20065;-88
2023/03/27 07:37:22;;;;;;;4.88;1.92;;;6.90;64.70;;;;;;4939417;28;20039;-87
2023/03/27 07:39:48;;;;;;;6.82;1.55;;;6.90;64.50;;;;;;4939039;28;20035;-87
2023/03/27 07:42:14;;;;;;;5.40;1.35;;;6.90;64.60;;;;;;4938963;28;20088;-87
2023/03/27 07:44:40;;;;;;;6.07;1.10;;;6.90;64.70;;;;;;5038615;28;20043;-88
2023/03/27 07:47:05;;;;;;;9.05;1.60;;;6.90;64.50;;;;;;4955103;28;20046;-89
2023/03/27 07:49:31;;;;;;;6.30;1.10;;;6.90;64.30;;;;;;5024444;28;20046;-88
2023/03/27 07:51:59;;;;;;;6.15;1.10;;;6.90;63.80;;;;;;4955469;28;20388;-87
2023/03/27 07:54:25;;;;;;;4.75;0.90;;;7.00;63.70;;;;;;4957392;28;20492;-86
2023/03/27 07:56:52;;;;;;;3.67;0.88;;;7.00;63.80;;;;;;4974592;28;20596;-88
2023/03/27 07:59:19;;;;;;;4.63;0.93;;;7.00;63.70;;;;;;4941901;28;20046;-87
2023/03/27 08:01:48;;;;;;;5.35;0.65;;;7.00;63.60;;;;;;4957355;28;20043;-87
2023/03/27 08:04:14;;;;;;;7.28;1.20;;;7.00;63.10;;;;;;4954912;28;20042;-86
2023/03/27 08:06:39;;;;;;;4.03;1.08;;;7.00;63.00;;;;;;4954717;28;20104;-88
2023/03/27 08:09:05;;;;;;;7.15;0.80;;;7.00;63.10;;;;;;4938802;28;20054;-88
2023/03/27 08:11:31;;;;;;;4.75;0.85;;;7.00;63.80;;;;;;5022159;28;20114;-86
2023/03/27 08:13:58;;;;;;;6.38;1.30;;;7.00;64.40;;;;;;5038377;28;20065;-87
2023/03/27 08:16:27;;;;;;;8.10;1.30;;;7.10;64.80;;;;;;5038977;28;20030;-87
2023/03/27 08:18:53;;;;;;;8.80;1.50;;;7.20;65.10;;;;;;4954855;28;20035;-87
2023/03/27 08:21:19;;;;;;;7.22;1.60;;;7.50;65.10;;;;;;4938783;28;20042;-87
2023/03/27 08:23:46;;;;;;;4.90;0.95;;;7.60;65.40;;;;;;4954877;28;20050;-88
2023/03/27 08:26:13;;;;;;;4.93;0.85;;;7.80;65.00;;;;;;4971191;28;20046;-88
2023/03/27 08:28:39;;;;;;;4.35;0.93;;;8.00;64.50;;;;;;4970499;28;20089;-88
2023/03/27 08:31:14;;;;;;;5.60;1.15;;;8.20;64.30;;;;;;4954708;28;20043;-87
2023/03/27 08:33:41;;;;;;;3.85;0.82;;;8.40;63.90;;;;;;4970603;28;20483;-87
2023/03/27 08:36:08;;;;;;;4.80;1.02;;;8.60;63.20;;;;;;4954279;28;20039;-87
2023/03/27 08:38:34;;;;;;;5.32;1.02;;;8.80;62.70;;;;;;5022137;28;20039;-86
2023/03/27 08:41:02;;;;;;;4.60;1.00;;;9.00;61.40;;;;;;4970175;28;20482;-87
2023/03/27 08:43:41;;;;;;;4.80;1.00;;;9.10;60.50;;;;;;4970311;28;20047;-87
2023/03/27 08:46:21;;;;;;;7.28;1.50;;;9.30;59.50;;;;;;4954456;28;20050;-87
2023/03/27 08:49:15;;;;;;;5.38;1.30;;;9.40;59.00;;;;;;4954218;28;20047;-88
2023/03/27 08:51:51;;;;;;;6.30;1.00;;;9.40;58.80;;;;;;4954140;28;20069;-87
2023/03/27 08:54:45;;;;;;;4.95;1.05;;;9.20;58.20;;;;;;4970700;28;20399;-87
2023/03/27 08:57:19;;;;;;;6.55;1.92;;;9.10;58.20;;;;;;4967332;28;20077;-87
2023/03/27 08:59:46;;;;;;;;;;;9.00;58.60;;;;;;4954325;28;20039;-86
2023/03/27 09:02:24;;;;;;;13.50;4.68;;;8.80;59.00;;;;;;5054507;28;19918;-85
2023/03/27 09:04:56;;;;;;;5.82;1.17;;;8.70;59.60;;;;;;4953854;28;20047;-85
2023/03/27 09:07:40;;;;;;;6.10;1.35;;;8.60;60.30;;;;;;4954006;28;20043;-85
2023/03/27 09:10:12;;;;;;;4.20;1.10;;;8.40;60.70;;;;;;4953747;28;20050;-85
2023/03/27 09:12:42;;;;;;;2.92;1.05;;;8.30;61.40;;;;;;4953962;28;20321;-85
2023/03/27 09:15:17;;;;;;;4.85;1.05;;;8.20;62.10;;;;;;4953768;28;20039;-85
2023/03/27 09:17:50;;;;;;;4.35;1.13;;;8.20;62.40;;;;;;4969740;28;20529;-85
2023/03/27 09:20:37;;;;;;;5.45;1.80;;;8.10;62.70;;;;;;4970043;28;20082;-85
2023/03/27 09:23:27;;;;;;;4.53;1.38;;;8.10;64.10;;;;;;4954073;28;20325;-85
2023/03/27 09:25:56;;;;;;;5.40;1.63;;;8.10;65.70;;;;;;4954578;28;20133;-85
2023/03/27 09:28:28;;;;;;;5.38;1.60;;;8.10;66.90;;;;;;4973289;28;20509;-84
2023/03/27 09:30:53;;;;;;;5.90;1.92;;;8.20;67.60;;;;;;4956717;28;20493;-85
2023/03/27 09:33:19;;;;;;;5.13;1.95;;;8.40;68.10;;;;;;5041604;28;20054;-84
2023/03/27 09:35:45;;;;;;;8.50;3.13;;;8.50;68.00;;;;;;4941074;28;20100;-85
2023/03/27 09:38:23;;;;;;;5.18;1.55;;;8.60;68.10;;;;;;4957117;28;20043;-86
2023/03/27 09:40:57;;;;;;;4.43;1.30;;;8.80;68.30;;;;;;4972852;28;20043;-85
2023/03/27 09:43:28;;;;;;;3.33;0.70;;;8.90;67.30;;;;;;4973210;28;20046;-85
2023/03/27 09:45:56;;;;;;;4.03;1.50;;;9.10;66.60;;;;;;4972805;28;20077;-86
2023/03/27 09:48:49;;;;;;;5.38;2.00;;;9.20;65.70;;;;;;5057457;28;20053;-86
2023/03/27 09:51:35;;;;;;;5.75;1.70;;;9.40;65.40;;;;;;5057490;28;20490;-86
2023/03/27 09:54:01;;;;;;;6.57;1.30;;;9.50;64.90;;;;;;4956892;28;20138;-85
2023/03/27 09:56:27;;;;;;;6.45;2.92;;;9.70;65.00;;;;;;4941103;28;20474;-85
2023/03/27 09:58:53;;;;;;;5.80;2.42;;;9.80;64.10;;;;;;5040924;28;20041;-86
2023/03/27 10:01:27;;;;;;;6.93;2.47;;;9.90;63.50;;;;;;5040569;28;20125;-86
2023/03/27 10:03:55;;;;;;;9.05;3.70;;;10.00;62.50;;;;;;4956521;28;20108;-86
2023/03/27 10:07:01;;;;;;;5.20;2.15;;;10.10;62.10;;;;;;4956341;28;20473;-86
2023/03/27 10:09:28;;;;;;;;;;;10.20;61.80;;;;;;4994736;28;20141;-86
2023/03/27 10:12:09;;;;;;;5.22;1.65;;;10.30;62.20;;;;;;4956339;28;19925;-86
2023/03/27 10:14:41;;;;;;;6.30;1.58;;;10.40;61.40;;;;;;4956570;28;20090;-87
2023/03/27 10:17:24;;;;;;;4.93;1.45;;;10.40;59.10;;;;;;5074001;28;20133;-87
2023/03/27 10:19:57;;;;;;;5.68;1.08;;;10.40;58.20;;;;;;4956301;28;20043;-86
2023/03/27 10:22:30;;;;;;;7.20;1.70;;;10.30;58.10;;;;;;4972293;28;20049;-86
2023/03/27 10:25:16;;;;;;;4.22;1.23;;;10.20;58.20;;;;;;4956355;28;20467;-86
2023/03/27 10:27:42;;;;;;;4.30;0.90;;;10.20;57.90;;;;;;4956020;28;20088;-86
2023/03/27 10:30:32;;;;;;;4.72;0.90;;;10.20;58.00;;;;;;4955928;28;20043;-86
2023/03/27 10:32:58;;;;;;;4.18;1.40;;;10.20;58.70;;;;;;4956045;28;20129;-86
2023/03/27 10:35:43;;;;;;;4.70;1.30;;;10.30;58.10;;;;;;4955740;28;20478;-87
2023/03/27 10:38:14;;;;;;;5.97;0.90;;;10.30;57.40;;;;;;4955416;28;20042;-86
2023/03/27 10:40:43;;;;;;;6.50;0.85;;;10.30;56.10;;;;;;4956264;28;20090;-85
2023/03/27 10:43:40;;;;;;;2.47;0.55;;;10.30;56.20;;;;;;4972128;28;20047;-85
2023/03/27 10:46:10;;;;;;;1.73;0.68;;;10.40;56.10;;;;;;4968625;28;20490;-85
2023/03/27 10:48:51;;;;;;;4.95;0.95;;;10.40;56.00;;;;;;4971695;28;20045;-86
2023/03/27 10:51:35;;;;;;;3.22;0.80;;;10.40;55.40;;;;;;4955630;28;20521;-84
2023/03/27 10:54:30;;;;;;;2.10;0.50;;;10.40;54.50;;;;;;4991687;28;20043;-85
2023/03/27 10:57:01;;;;;;;5.82;1.13;;;10.40;54.50;;;;;;5073558;28;20492;-83
2023/03/27 10:59:52;;;;;;;4.32;0.77;;;10.40;54.40;;;;;;4975038;28;20031;-85
2023/03/27 11:02:30;;;;;;;4.28;0.80;;;10.50;54.40;;;;;;4962070;28;20058;-85
2023/03/27 11:05:22;;;;;;;3.15;0.63;;;10.50;54.50;;;;;;4962680;28;20055;-84
2023/03/27 11:08:00;;;;;;;5.10;0.88;;;10.50;53.90;;;;;;4971382;28;20073;-84
2023/03/27 11:10:45;;;;;;;5.22;0.70;;;10.40;53.30;;;;;;5052696;28;20077;-85
2023/03/27 11:13:21;;;;;;;3.85;0.95;;;10.40;53.20;;;;;;4963784;28;20088;-84
2023/03/27 11:16:08;;;;;;;2.75;1.00;;;10.40;53.60;;;;;;4985891;28;20480;-84
2023/03/27 11:18:55;;;;;;;5.70;1.48;;;10.40;53.50;;;;;;5070953;28;20067;-84
2023/03/27 11:21:43;;;;;;;7.05;0.80;;;10.40;53.00;;;;;;5011566;28;20042;-85
2023/03/27 11:24:32;;;;;;;3.40;0.70;;;10.50;51.50;;;;;;4965034;28;20039;-84
2023/03/27 11:27:29;;;;;;;5.40;0.95;;;10.40;52.60;;;;;;5001731;28;20050;-85
2023/03/27 11:30:01;;;;;;;3.58;0.80;;;10.40;53.40;;;;;;4972245;28;20058;-82
2023/03/27 11:33:03;;;;;;;1.40;0.50;;;10.30;54.00;;;;;;4964569;28;20091;-83
2023/03/27 11:35:48;;;;;;;2.97;0.50;;;10.20;54.60;;;;;;4980086;28;20089;-83
2023/03/27 11:38:20;;;;;;;2.75;0.65;;;10.10;55.40;;;;;;4980630;28;20042;-83
2023/03/27 11:40:48;;;;;;;4.47;0.85;;;10.00;56.50;;;;;;4955738;28;20057;-84
2023/03/27 11:43:16;;;;;;;6.40;1.15;;;9.90;57.00;;;;;;4970479;28;20054;-83
2023/03/27 11:46:06;;;;;;;4.22;0.65;;;9.90;57.30;;;;;;4970825;28;20463;-85
2023/03/27 11:48:51;;;;;;;3.08;0.60;;;9.90;57.50;;;;;;4985705;28;20125;-84
2023/03/27 11:51:56;;;;;;;4.50;0.75;;;9.90;57.20;;;;;;4986883;28;20100;-85
2023/03/27 11:55:05;;;;;;;6.40;2.20;;;9.90;57.50;;;;;;4956895;28;20090;-84
2023/03/27 11:57:55;;;;;;;6.38;1.83;;;9.90;56.10;;;;;;4970328;28;20043;-85
2023/03/27 12:00:30;;;;;;;9.30;3.60;;;9.80;56.00;;;;;;4954468;28;20051;-85
2023/03/27 12:03:07;;;;;;;9.10;3.00;;;9.90;56.10;;;;;;4954572;28;20051;-85
2023/03/27 12:05:39;;;;;;;8.85;2.08;;;9.80;55.80;;;;;;4954821;28;20066;-85
2023/03/27 12:08:27;;;;;;;8.63;2.50;;;9.90;56.30;;;;;;4970769;28;20423;-84
2023/03/27 12:10:55;;;;;;;7.22;2.10;;;9.90;56.40;;;;;;4974682;28;20039;-84
2023/03/27 12:13:36;;;;;;;4.75;0.90;;;9.90;56.20;;;;;;4959234;28;20452;-85
2023/03/27 12:16:35;;;;;;;4.65;1.10;;;9.80;55.80;;;;;;4954815;28;20080;-84
2023/03/27 12:19:20;;;;;;;4.93;1.17;;;9.80;55.80;;;;;;4954454;28;20043;-84
2023/03/27 12:22:16;;;;;;;4.07;1.00;;;9.70;56.60;;;;;;4970389;28;20054;-83
2023/03/27 12:24:54;;;;;;;4.15;1.60;;;9.70;56.30;;;;;;4954229;28;20485;-85
2023/03/27 12:27:31;;;;;;;4.45;1.65;;;9.60;56.20;;;;;;4955999;28;20039;-83
2023/03/27 12:30:12;;;;;;;6.10;1.70;;;9.70;56.40;;;;;;5005331;28;20045;-84
2023/03/27 12:33:03;;;;;;;5.35;1.88;;;9.60;56.50;;;;;;4972290;28;20043;-83
2023/03/27 12:35:40;;;;;;;9.40;2.10;;;9.70;56.70;;;;;;4971142;28;20047;-84
2023/03/27 12:38:12;;;;;;;8.15;2.50;;;9.70;55.90;;;;;;4954325;28;20073;-85
2023/03/27 12:40:46;;;;;;;6.68;2.03;;;9.70;55.40;;;;;;4954264;28;20034;-85
2023/03/27 12:43:28;;;;;;;9.98;2.17;;;9.70;55.70;;;;;;4954299;28;20086;-85
2023/03/27 12:46:23;;;;;;;7.15;1.60;;;9.80;54.60;;;;;;4970047;28;20108;-85
2023/03/27 12:49:09;;;;;;;5.00;1.42;;;9.80;55.10;;;;;;4986384;28;20100;-85
2023/03/27 12:51:36;;;;;;;7.63;1.35;;;9.80;54.80;;;;;;4999022;28;20045;-84
2023/03/27 12:54:25;;;;;;;6.13;1.42;;;9.80;54.90;;;;;;5068102;28;20041;-85
2023/03/27 12:56:57;;;;;;;5.60;1.88;;;9.90;54.40;;;;;;5050266;28;20508;-85
2023/03/27 12:59:26;;;;;;;5.80;1.65;;;9.90;54.80;;;;;;4986785;28;20035;-85
2023/03/27 13:01:58;;;;;;;6.65;1.40;;;10.00;54.30;;;;;;4989431;28;20069;-84
2023/03/27 13:04:24;;;;;;;6.90;2.05;;;10.00;53.30;;;;;;4973211;28;20039;-83
2023/03/27 13:06:54;;;;;;;8.15;1.50;;;10.10;52.20;;;;;;5058671;28;20414;-83
2023/03/27 13:09:44;;;;;;;4.45;1.10;;;10.10;51.50;;;;;;5075129;28;20557;-84
2023/03/27 13:12:21;;;;;;;9.23;1.90;;;10.10;51.50;;;;;;4957069;28;20042;-83
2023/03/27 13:15:12;;;;;;;6.47;1.10;;;10.10;51.40;;;;;;4962699;28;20066;-82
2023/03/27 13:18:08;;;;;;;6.50;1.35;;;10.10;50.00;;;;;;4937750;29;20062;-82
2023/03/27 13:20:45;;;;;;;6.30;1.25;;;10.10;50.60;;;;;;5070304;28;20406;-82
2023/03/27 13:23:38;;;;;;;5.85;1.60;;;10.10;50.30;;;;;;4972929;28;20050;-82
2023/03/27 13:26:16;;;;;;;7.80;1.00;;;10.20;47.90;;;;;;4956407;28;20042;-82